sensor_id;sensor_type;location;lat;lon;timestamp;P1;durP1;ratioP1;P2;durP2;ratioP2
73571;SDS011;61854;48.510;-2.770;2022-12-29T00:01:45;16.83;;;3.35;;
73571;SDS011;61854;48.510;-2.770;2022-12-29T00:04:14;18.55;;;2.65;;
73571;SDS011;61854;48.510;-2.770;2022-12-29T00:06:40;15.13;;;2.78;;
73571;SDS011;61854;48.510;-2.770;2022-12-29T00:09:06;17.65;;;2.95;;
73571;SDS011;61854;48.510;-2.770;2022-12-29T00:11:32;16.48;;;2.85;;
73571;SDS011;61854;48.510;-2.770;2022-12-29T00:13:57;17.67;;;3.53;;
73571;SDS011;61854;48.510;-2.770;2022-12-29T00:16:52;20.55;;;2.88;;
73571;SDS011;61854;48.510;-2.770;2022-12-29T00:19:18;23.15;;;4.05;;
73571;SDS011;61854;48.510;-2.770;2022-12-29T00:22:02;23.17;;;3.50;;
73571;SDS011;61854;48.510;-2.770;2022-12-29T00:24:46;19.58;;;2.95;;
73571;SDS011;61854;48.510;-2.770;2022-12-29T00:27:18;22.80;;;3.67;;
73571;SDS011;61854;48.510;-2.770;2022-12-29T00:30:04;18.83;;;2.58;;
73571;SDS011;61854;48.510;-2.770;2022-12-29T00:32:52;20.77;;;3.78;;
73571;SDS011;61854;48.510;-2.770;2022-12-29T00:35:43;17.63;;;3.00;;
73571;SDS011;61854;48.510;-2.770;2022-12-29T00:38:12;14.90;;;2.80;;
73571;SDS011;61854;48.510;-2.770;2022-12-29T00:40:57;16.55;;;2.72;;
73571;SDS011;61854;48.510;-2.770;2022-12-29T00:43:41;17.40;;;2.60;;
73571;SDS011;61854;48.510;-2.770;2022-12-29T00:46:25;16.48;;;2.38;;
73571;SDS011;61854;48.510;-2.770;2022-12-29T00:48:51;16.00;;;2.25;;
73571;SDS011;61854;48.510;-2.770;2022-12-29T00:51:35;19.85;;;3.20;;
73571;SDS011;61854;48.510;-2.770;2022-12-29T00:54:00;18.88;;;2.97;;
73571;SDS011;61854;48.510;-2.770;2022-12-29T00:56:26;17.38;;;2.63;;
73571;SDS011;61854;48.510;-2.770;2022-12-29T00:58:52;22.38;;;2.80;;
73571;SDS011;61854;48.510;-2.770;2022-12-29T01:01:17;20.77;;;3.00;;
73571;SDS011;61854;48.510;-2.770;2022-12-29T01:03:43;11.57;;;2.03;;
73571;SDS011;61854;48.510;-2.770;2022-12-29T01:06:10;18.65;;;3.25;;
73571;SDS011;61854;48.510;-2.770;2022-12-29T01:08:36;15.43;;;2.72;;
73571;SDS011;61854;48.510;-2.770;2022-12-29T01:11:03;14.45;;;2.55;;
73571;SDS011;61854;48.510;-2.770;2022-12-29T01:13:32;14.50;;;2.42;;
73571;SDS011;61854;48.510;-2.770;2022-12-29T01:15:57;12.23;;;2.35;;
73571;SDS011;61854;48.510;-2.770;2022-12-29T01:18:23;18.33;;;2.70;;
73571;SDS011;61854;48.510;-2.770;2022-12-29T01:20:50;19.40;;;2.92;;
73571;SDS011;61854;48.510;-2.770;2022-12-29T01:23:16;21.70;;;3.17;;
73571;SDS011;61854;48.510;-2.770;2022-12-29T01:25:42;23.85;;;3.63;;
73571;SDS011;61854;48.510;-2.770;2022-12-29T01:28:07;23.80;;;4.07;;
73571;SDS011;61854;48.510;-2.770;2022-12-29T01:30:34;13.10;;;2.60;;
73571;SDS011;61854;48.510;-2.770;2022-12-29T01:33:00;19.80;;;2.92;;
73571;SDS011;61854;48.510;-2.770;2022-12-29T01:35:26;20.70;;;3.55;;
73571;SDS011;61854;48.510;-2.770;2022-12-29T01:37:52;24.88;;;3.28;;
73571;SDS011;61854;48.510;-2.770;2022-12-29T01:40:18;18.88;;;3.10;;
73571;SDS011;61854;48.510;-2.770;2022-12-29T01:42:44;16.80;;;3.13;;
73571;SDS011;61854;48.510;-2.770;2022-12-29T01:45:10;19.60;;;3.33;;
73571;SDS011;61854;48.510;-2.770;2022-12-29T01:47:44;23.98;;;4.03;;
73571;SDS011;61854;48.510;-2.770;2022-12-29T01:50:30;16.17;;;2.95;;
73571;SDS011;61854;48.510;-2.770;2022-12-29T01:52:59;19.48;;;3.05;;
73571;SDS011;61854;48.510;-2.770;2022-12-29T01:55:37;15.13;;;2.35;;
73571;SDS011;61854;48.510;-2.770;2022-12-29T01:58:07;25.15;;;2.85;;
73571;SDS011;61854;48.510;-2.770;2022-12-29T02:00:35;20.77;;;2.60;;
73571;SDS011;61854;48.510;-2.770;2022-12-29T02:03:02;18.63;;;2.97;;
73571;SDS011;61854;48.510;-2.770;2022-12-29T02:05:45;23.90;;;3.80;;
73571;SDS011;61854;48.510;-2.770;2022-12-29T02:08:14;22.00;;;2.95;;
73571;SDS011;61854;48.510;-2.770;2022-12-29T02:10:40;19.73;;;3.00;;
73571;SDS011;61854;48.510;-2.770;2022-12-29T02:13:07;18.58;;;2.65;;
73571;SDS011;61854;48.510;-2.770;2022-12-29T02:24:15;18.83;;;2.83;;
73571;SDS011;61854;48.510;-2.770;2022-12-29T02:27:05;22.75;;;2.95;;
73571;SDS011;61854;48.510;-2.770;2022-12-29T02:38:11;22.05;;;3.60;;
73571;SDS011;61854;48.510;-2.770;2022-12-29T02:40:40;23.38;;;3.17;;
73571;SDS011;61854;48.510;-2.770;2022-12-29T02:43:32;22.20;;;3.15;;
73571;SDS011;61854;48.510;-2.770;2022-12-29T02:46:06;23.40;;;3.33;;
73571;SDS011;61854;48.510;-2.770;2022-12-29T02:51:45;22.80;;;3.17;;
73571;SDS011;61854;48.510;-2.770;2022-12-29T02:54:17;25.73;;;3.40;;
73571;SDS011;61854;48.510;-2.770;2022-12-29T02:57:03;20.85;;;3.22;;
73571;SDS011;61854;48.510;-2.770;2022-12-29T02:59:30;28.13;;;3.40;;
73571;SDS011;61854;48.510;-2.770;2022-12-29T03:02:07;25.38;;;3.75;;
73571;SDS011;61854;48.510;-2.770;2022-12-29T03:15:39;19.27;;;3.47;;
73571;SDS011;61854;48.510;-2.770;2022-12-29T03:21:01;25.02;;;3.65;;
73571;SDS011;61854;48.510;-2.770;2022-12-29T03:23:41;19.15;;;3.50;;
73571;SDS011;61854;48.510;-2.770;2022-12-29T03:26:12;27.45;;;4.63;;
73571;SDS011;61854;48.510;-2.770;2022-12-29T03:28:46;22.63;;;3.08;;
73571;SDS011;61854;48.510;-2.770;2022-12-29T03:31:16;18.48;;;3.03;;
73571;SDS011;61854;48.510;-2.770;2022-12-29T03:33:43;26.30;;;3.88;;
73571;SDS011;61854;48.510;-2.770;2022-12-29T03:36:12;21.42;;;3.80;;
73571;SDS011;61854;48.510;-2.770;2022-12-29T03:38:50;22.35;;;3.20;;
73571;SDS011;61854;48.510;-2.770;2022-12-29T03:41:23;22.85;;;3.55;;
73571;SDS011;61854;48.510;-2.770;2022-12-29T03:43:53;23.35;;;3.17;;
73571;SDS011;61854;48.510;-2.770;2022-12-29T03:46:19;19.75;;;2.92;;
73571;SDS011;61854;48.510;-2.770;2022-12-29T03:48:45;23.85;;;4.20;;
73571;SDS011;61854;48.510;-2.770;2022-12-29T03:51:10;26.08;;;4.43;;
73571;SDS011;61854;48.510;-2.770;2022-12-29T03:53:36;25.60;;;3.85;;
73571;SDS011;61854;48.510;-2.770;2022-12-29T03:56:02;27.83;;;4.47;;
73571;SDS011;61854;48.510;-2.770;2022-12-29T03:58:27;21.42;;;3.47;;
73571;SDS011;61854;48.510;-2.770;2022-12-29T04:00:54;27.88;;;3.72;;
73571;SDS011;61854;48.510;-2.770;2022-12-29T04:03:20;24.90;;;3.80;;
73571;SDS011;61854;48.510;-2.770;2022-12-29T04:05:45;26.75;;;4.55;;
73571;SDS011;61854;48.510;-2.770;2022-12-29T04:08:11;29.08;;;3.42;;
73571;SDS011;61854;48.510;-2.770;2022-12-29T04:10:36;26.08;;;3.97;;
73571;SDS011;61854;48.510;-2.770;2022-12-29T04:13:02;27.92;;;4.20;;
73571;SDS011;61854;48.510;-2.770;2022-12-29T04:15:29;21.52;;;3.13;;
73571;SDS011;61854;48.510;-2.770;2022-12-29T04:17:54;26.55;;;3.53;;
73571;SDS011;61854;48.510;-2.770;2022-12-29T04:20:20;27.38;;;4.38;;
73571;SDS011;61854;48.510;-2.770;2022-12-29T04:23:04;25.23;;;3.42;;
73571;SDS011;61854;48.510;-2.770;2022-12-29T04:25:31;25.67;;;4.25;;
73571;SDS011;61854;48.510;-2.770;2022-12-29T04:27:58;26.08;;;4.28;;
73571;SDS011;61854;48.510;-2.770;2022-12-29T04:30:23;27.38;;;4.43;;
73571;SDS011;61854;48.510;-2.770;2022-12-29T04:32:49;26.02;;;3.88;;
73571;SDS011;61854;48.510;-2.770;2022-12-29T04:35:15;22.05;;;3.33;;
73571;SDS011;61854;48.510;-2.770;2022-12-29T04:37:40;17.25;;;2.97;;
73571;SDS011;61854;48.510;-2.770;2022-12-29T04:40:06;30.80;;;4.55;;
73571;SDS011;61854;48.510;-2.770;2022-12-29T04:42:33;24.55;;;3.08;;
73571;SDS011;61854;48.510;-2.770;2022-12-29T04:44:58;26.80;;;4.40;;
73571;SDS011;61854;48.510;-2.770;2022-12-29T04:47:24;26.42;;;4.03;;
73571;SDS011;61854;48.510;-2.770;2022-12-29T04:49:50;22.67;;;4.00;;
73571;SDS011;61854;48.510;-2.770;2022-12-29T04:52:15;21.88;;;2.88;;
73571;SDS011;61854;48.510;-2.770;2022-12-29T04:54:44;28.70;;;3.85;;
73571;SDS011;61854;48.510;-2.770;2022-12-29T04:57:09;27.00;;;4.05;;
73571;SDS011;61854;48.510;-2.770;2022-12-29T04:59:35;31.98;;;4.22;;
73571;SDS011;61854;48.510;-2.770;2022-12-29T05:02:00;26.05;;;3.80;;
73571;SDS011;61854;48.510;-2.770;2022-12-29T05:04:26;23.70;;;4.20;;
73571;SDS011;61854;48.510;-2.770;2022-12-29T05:06:52;33.88;;;4.50;;
73571;SDS011;61854;48.510;-2.770;2022-12-29T05:09:17;26.65;;;4.30;;
73571;SDS011;61854;48.510;-2.770;2022-12-29T05:11:43;28.95;;;3.35;;
73571;SDS011;61854;48.510;-2.770;2022-12-29T05:14:08;23.13;;;3.95;;
73571;SDS011;61854;48.510;-2.770;2022-12-29T05:16:34;29.27;;;4.32;;
73571;SDS011;61854;48.510;-2.770;2022-12-29T05:19:00;28.25;;;4.30;;
73571;SDS011;61854;48.510;-2.770;2022-12-29T05:21:25;29.20;;;4.28;;
73571;SDS011;61854;48.510;-2.770;2022-12-29T05:23:51;20.23;;;3.28;;
73571;SDS011;61854;48.510;-2.770;2022-12-29T05:26:16;27.48;;;3.90;;
73571;SDS011;61854;48.510;-2.770;2022-12-29T05:28:42;23.17;;;3.42;;
73571;SDS011;61854;48.510;-2.770;2022-12-29T05:31:07;25.35;;;3.78;;
73571;SDS011;61854;48.510;-2.770;2022-12-29T05:33:33;26.02;;;3.83;;
73571;SDS011;61854;48.510;-2.770;2022-12-29T05:36:07;30.63;;;4.30;;
73571;SDS011;61854;48.510;-2.770;2022-12-29T05:38:33;21.38;;;3.42;;
73571;SDS011;61854;48.510;-2.770;2022-12-29T05:40:59;28.88;;;4.30;;
73571;SDS011;61854;48.510;-2.770;2022-12-29T05:43:25;25.33;;;3.92;;
73571;SDS011;61854;48.510;-2.770;2022-12-29T05:45:51;21.27;;;3.45;;
73571;SDS011;61854;48.510;-2.770;2022-12-29T05:48:17;28.75;;;4.47;;
73571;SDS011;61854;48.510;-2.770;2022-12-29T05:50:46;26.77;;;3.78;;
73571;SDS011;61854;48.510;-2.770;2022-12-29T05:53:13;26.55;;;3.50;;
73571;SDS011;61854;48.510;-2.770;2022-12-29T05:55:38;24.88;;;3.80;;
73571;SDS011;61854;48.510;-2.770;2022-12-29T05:58:04;24.02;;;3.83;;
73571;SDS011;61854;48.510;-2.770;2022-12-29T06:00:30;23.85;;;2.95;;
73571;SDS011;61854;48.510;-2.770;2022-12-29T06:02:55;22.05;;;3.55;;
73571;SDS011;61854;48.510;-2.770;2022-12-29T06:05:22;22.85;;;3.88;;
73571;SDS011;61854;48.510;-2.770;2022-12-29T06:07:47;24.38;;;3.42;;
73571;SDS011;61854;48.510;-2.770;2022-12-29T06:10:13;24.55;;;3.72;;
73571;SDS011;61854;48.510;-2.770;2022-12-29T06:12:39;25.02;;;3.60;;
73571;SDS011;61854;48.510;-2.770;2022-12-29T06:15:04;22.23;;;3.22;;
73571;SDS011;61854;48.510;-2.770;2022-12-29T06:17:31;18.30;;;3.03;;
73571;SDS011;61854;48.510;-2.770;2022-12-29T06:19:57;24.70;;;3.38;;
73571;SDS011;61854;48.510;-2.770;2022-12-29T06:22:23;24.02;;;3.35;;
73571;SDS011;61854;48.510;-2.770;2022-12-29T06:24:49;22.15;;;3.22;;
73571;SDS011;61854;48.510;-2.770;2022-12-29T06:27:14;21.58;;;2.83;;
73571;SDS011;61854;48.510;-2.770;2022-12-29T06:29:40;27.88;;;3.65;;
73571;SDS011;61854;48.510;-2.770;2022-12-29T06:32:06;23.83;;;3.20;;
73571;SDS011;61854;48.510;-2.770;2022-12-29T06:34:32;26.35;;;3.67;;
73571;SDS011;61854;48.510;-2.770;2022-12-29T06:36:57;23.85;;;3.28;;
73571;SDS011;61854;48.510;-2.770;2022-12-29T06:39:23;23.13;;;3.60;;
73571;SDS011;61854;48.510;-2.770;2022-12-29T06:41:51;26.05;;;3.58;;
73571;SDS011;61854;48.510;-2.770;2022-12-29T06:44:18;28.38;;;3.78;;
73571;SDS011;61854;48.510;-2.770;2022-12-29T06:46:44;25.67;;;3.42;;
73571;SDS011;61854;48.510;-2.770;2022-12-29T06:49:10;25.80;;;3.75;;
73571;SDS011;61854;48.510;-2.770;2022-12-29T06:51:36;21.15;;;2.83;;
73571;SDS011;61854;48.510;-2.770;2022-12-29T06:54:01;34.10;;;4.78;;
73571;SDS011;61854;48.510;-2.770;2022-12-29T06:56:27;30.95;;;3.90;;
73571;SDS011;61854;48.510;-2.770;2022-12-29T06:58:52;23.52;;;3.67;;
73571;SDS011;61854;48.510;-2.770;2022-12-29T07:01:18;29.50;;;3.60;;
73571;SDS011;61854;48.510;-2.770;2022-12-29T07:03:44;27.30;;;3.75;;
73571;SDS011;61854;48.510;-2.770;2022-12-29T07:06:09;28.85;;;4.07;;
73571;SDS011;61854;48.510;-2.770;2022-12-29T07:08:35;26.05;;;3.85;;
73571;SDS011;61854;48.510;-2.770;2022-12-29T07:11:01;33.08;;;5.00;;
73571;SDS011;61854;48.510;-2.770;2022-12-29T07:13:26;24.63;;;3.50;;
73571;SDS011;61854;48.510;-2.770;2022-12-29T07:15:52;30.02;;;3.95;;
73571;SDS011;61854;48.510;-2.770;2022-12-29T07:18:17;27.63;;;3.50;;
73571;SDS011;61854;48.510;-2.770;2022-12-29T07:20:43;27.40;;;3.50;;
73571;SDS011;61854;48.510;-2.770;2022-12-29T07:23:09;27.90;;;3.53;;
73571;SDS011;61854;48.510;-2.770;2022-12-29T07:25:35;26.30;;;3.95;;
73571;SDS011;61854;48.510;-2.770;2022-12-29T07:28:01;29.15;;;4.22;;
73571;SDS011;61854;48.510;-2.770;2022-12-29T07:30:28;22.92;;;3.10;;
73571;SDS011;61854;48.510;-2.770;2022-12-29T07:32:53;23.10;;;3.00;;
73571;SDS011;61854;48.510;-2.770;2022-12-29T07:35:19;22.13;;;3.55;;
73571;SDS011;61854;48.510;-2.770;2022-12-29T07:37:45;24.85;;;3.95;;
73571;SDS011;61854;48.510;-2.770;2022-12-29T07:40:11;27.20;;;4.80;;
73571;SDS011;61854;48.510;-2.770;2022-12-29T07:42:37;27.38;;;3.55;;
73571;SDS011;61854;48.510;-2.770;2022-12-29T07:45:03;28.65;;;4.13;;
73571;SDS011;61854;48.510;-2.770;2022-12-29T07:47:29;21.27;;;4.05;;
73571;SDS011;61854;48.510;-2.770;2022-12-29T07:49:55;23.35;;;3.35;;
73571;SDS011;61854;48.510;-2.770;2022-12-29T07:52:20;31.52;;;4.95;;
73571;SDS011;61854;48.510;-2.770;2022-12-29T07:54:46;24.10;;;3.75;;
73571;SDS011;61854;48.510;-2.770;2022-12-29T07:57:12;22.02;;;3.47;;
73571;SDS011;61854;48.510;-2.770;2022-12-29T07:59:38;21.67;;;3.13;;
73571;SDS011;61854;48.510;-2.770;2022-12-29T08:02:03;28.10;;;4.10;;
73571;SDS011;61854;48.510;-2.770;2022-12-29T08:04:29;27.70;;;3.70;;
73571;SDS011;61854;48.510;-2.770;2022-12-29T08:06:54;25.27;;;3.70;;
73571;SDS011;61854;48.510;-2.770;2022-12-29T08:09:20;20.48;;;3.22;;
73571;SDS011;61854;48.510;-2.770;2022-12-29T08:11:46;24.42;;;3.67;;
73571;SDS011;61854;48.510;-2.770;2022-12-29T08:14:11;23.23;;;3.58;;
73571;SDS011;61854;48.510;-2.770;2022-12-29T08:16:37;23.27;;;2.97;;
73571;SDS011;61854;48.510;-2.770;2022-12-29T08:19:02;32.28;;;3.42;;
73571;SDS011;61854;48.510;-2.770;2022-12-29T08:21:29;26.63;;;4.40;;
73571;SDS011;61854;48.510;-2.770;2022-12-29T08:23:56;31.40;;;3.70;;
73571;SDS011;61854;48.510;-2.770;2022-12-29T08:26:21;22.95;;;4.28;;
73571;SDS011;61854;48.510;-2.770;2022-12-29T08:28:47;26.92;;;4.05;;
73571;SDS011;61854;48.510;-2.770;2022-12-29T08:31:13;31.17;;;4.78;;
73571;SDS011;61854;48.510;-2.770;2022-12-29T08:33:38;22.92;;;3.28;;
73571;SDS011;61854;48.510;-2.770;2022-12-29T08:36:05;26.23;;;3.70;;
73571;SDS011;61854;48.510;-2.770;2022-12-29T08:38:34;21.38;;;3.67;;
73571;SDS011;61854;48.510;-2.770;2022-12-29T08:43:27;22.10;;;3.22;;
73571;SDS011;61854;48.510;-2.770;2022-12-29T08:45:53;26.88;;;4.60;;
73571;SDS011;61854;48.510;-2.770;2022-12-29T08:48:19;24.10;;;3.50;;
73571;SDS011;61854;48.510;-2.770;2022-12-29T08:50:47;24.35;;;4.03;;
73571;SDS011;61854;48.510;-2.770;2022-12-29T08:53:13;20.08;;;3.28;;
73571;SDS011;61854;48.510;-2.770;2022-12-29T08:55:39;28.48;;;4.50;;
73571;SDS011;61854;48.510;-2.770;2022-12-29T08:58:05;30.75;;;4.05;;
73571;SDS011;61854;48.510;-2.770;2022-12-29T09:00:31;23.25;;;3.50;;
73571;SDS011;61854;48.510;-2.770;2022-12-29T09:02:56;25.48;;;3.97;;
73571;SDS011;61854;48.510;-2.770;2022-12-29T09:05:22;24.90;;;3.65;;
73571;SDS011;61854;48.510;-2.770;2022-12-29T09:07:48;24.00;;;3.20;;
73571;SDS011;61854;48.510;-2.770;2022-12-29T09:10:13;34.15;;;4.10;;
73571;SDS011;61854;48.510;-2.770;2022-12-29T09:12:39;31.60;;;4.30;;
73571;SDS011;61854;48.510;-2.770;2022-12-29T09:15:05;26.52;;;3.92;;
73571;SDS011;61854;48.510;-2.770;2022-12-29T09:17:31;25.95;;;4.28;;
73571;SDS011;61854;48.510;-2.770;2022-12-29T09:20:05;22.25;;;3.30;;
73571;SDS011;61854;48.510;-2.770;2022-12-29T09:22:31;25.65;;;3.28;;
73571;SDS011;61854;48.510;-2.770;2022-12-29T09:24:57;22.13;;;3.42;;
73571;SDS011;61854;48.510;-2.770;2022-12-29T09:27:23;28.83;;;4.32;;
73571;SDS011;61854;48.510;-2.770;2022-12-29T09:29:48;22.80;;;3.80;;
73571;SDS011;61854;48.510;-2.770;2022-12-29T09:32:14;19.20;;;3.25;;
73571;SDS011;61854;48.510;-2.770;2022-12-29T09:34:39;27.45;;;4.97;;
73571;SDS011;61854;48.510;-2.770;2022-12-29T09:37:05;26.02;;;3.50;;
73571;SDS011;61854;48.510;-2.770;2022-12-29T09:39:31;27.13;;;4.43;;
73571;SDS011;61854;48.510;-2.770;2022-12-29T09:47:38;26.05;;;4.00;;
73571;SDS011;61854;48.510;-2.770;2022-12-29T09:50:07;19.48;;;3.53;;
73571;SDS011;61854;48.510;-2.770;2022-12-29T09:52:40;30.42;;;4.15;;
73571;SDS011;61854;48.510;-2.770;2022-12-29T09:55:14;24.23;;;3.80;;
73571;SDS011;61854;48.510;-2.770;2022-12-29T09:57:54;29.17;;;4.28;;
73571;SDS011;61854;48.510;-2.770;2022-12-29T10:00:28;24.60;;;3.50;;
73571;SDS011;61854;48.510;-2.770;2022-12-29T10:03:10;19.65;;;3.13;;
73571;SDS011;61854;48.510;-2.770;2022-12-29T10:24:54;23.35;;;3.67;;
73571;SDS011;61854;48.510;-2.770;2022-12-29T10:27:21;20.67;;;3.73;;
73571;SDS011;61854;48.510;-2.770;2022-12-29T10:29:50;18.80;;;3.33;;
73571;SDS011;61854;48.510;-2.770;2022-12-29T10:35:18;25.77;;;4.93;;
73571;SDS011;61854;48.510;-2.770;2022-12-29T10:37:48;22.95;;;3.80;;
73571;SDS011;61854;48.510;-2.770;2022-12-29T10:40:36;32.88;;;4.22;;
73571;SDS011;61854;48.510;-2.770;2022-12-29T10:45:52;24.88;;;3.42;;
73571;SDS011;61854;48.510;-2.770;2022-12-29T10:48:21;21.45;;;3.58;;
73571;SDS011;61854;48.510;-2.770;2022-12-29T10:50:50;32.78;;;4.68;;
73571;SDS011;61854;48.510;-2.770;2022-12-29T10:53:22;24.88;;;3.40;;
73571;SDS011;61854;48.510;-2.770;2022-12-29T10:55:52;23.98;;;3.90;;
73571;SDS011;61854;48.510;-2.770;2022-12-29T10:58:19;25.75;;;3.95;;
73571;SDS011;61854;48.510;-2.770;2022-12-29T11:00:49;21.75;;;3.80;;
73571;SDS011;61854;48.510;-2.770;2022-12-29T11:03:28;24.90;;;4.13;;
73571;SDS011;61854;48.510;-2.770;2022-12-29T11:06:31;26.65;;;3.83;;
73571;SDS011;61854;48.510;-2.770;2022-12-29T11:08:58;28.45;;;4.28;;
73571;SDS011;61854;48.510;-2.770;2022-12-29T11:11:35;21.00;;;4.00;;
73571;SDS011;61854;48.510;-2.770;2022-12-29T11:14:18;21.23;;;3.15;;
73571;SDS011;61854;48.510;-2.770;2022-12-29T11:17:01;26.20;;;3.97;;
73571;SDS011;61854;48.510;-2.770;2022-12-29T11:19:29;22.45;;;3.10;;
73571;SDS011;61854;48.510;-2.770;2022-12-29T11:22:21;22.55;;;3.20;;
73571;SDS011;61854;48.510;-2.770;2022-12-29T11:24:54;24.95;;;3.80;;
73571;SDS011;61854;48.510;-2.770;2022-12-29T11:27:29;18.15;;;3.28;;
73571;SDS011;61854;48.510;-2.770;2022-12-29T11:29:55;22.63;;;3.10;;
73571;SDS011;61854;48.510;-2.770;2022-12-29T11:32:22;22.13;;;2.88;;
73571;SDS011;61854;48.510;-2.770;2022-12-29T11:34:49;14.82;;;2.22;;
73571;SDS011;61854;48.510;-2.770;2022-12-29T11:37:17;18.25;;;2.90;;
73571;SDS011;61854;48.510;-2.770;2022-12-29T11:39:57;19.13;;;2.33;;
73571;SDS011;61854;48.510;-2.770;2022-12-29T11:42:31;17.23;;;3.00;;
73571;SDS011;61854;48.510;-2.770;2022-12-29T11:45:06;21.02;;;3.03;;
73571;SDS011;61854;48.510;-2.770;2022-12-29T11:47:41;17.52;;;3.47;;
73571;SDS011;61854;48.510;-2.770;2022-12-29T11:50:15;19.80;;;3.37;;
73571;SDS011;61854;48.510;-2.770;2022-12-29T11:52:57;21.80;;;3.20;;
73571;SDS011;61854;48.510;-2.770;2022-12-29T11:55:28;18.63;;;3.15;;
73571;SDS011;61854;48.510;-2.770;2022-12-29T11:57:55;11.48;;;2.30;;
73571;SDS011;61854;48.510;-2.770;2022-12-29T12:00:23;14.80;;;2.47;;
73571;SDS011;61854;48.510;-2.770;2022-12-29T12:05:21;20.25;;;3.03;;
73571;SDS011;61854;48.510;-2.770;2022-12-29T12:07:59;20.98;;;2.50;;
73571;SDS011;61854;48.510;-2.770;2022-12-29T12:13:57;15.65;;;2.33;;
73571;SDS011;61854;48.510;-2.770;2022-12-29T12:19:34;20.77;;;3.15;;
73571;SDS011;61854;48.510;-2.770;2022-12-29T12:22:21;13.10;;;1.92;;
73571;SDS011;61854;48.510;-2.770;2022-12-29T12:25:11;12.68;;;1.98;;
73571;SDS011;61854;48.510;-2.770;2022-12-29T12:30:47;19.05;;;2.03;;
73571;SDS011;61854;48.510;-2.770;2022-12-29T12:33:16;8.77;;;1.77;;
73571;SDS011;61854;48.510;-2.770;2022-12-29T12:44:36;12.90;;;1.85;;
73571;SDS011;61854;48.510;-2.770;2022-12-29T12:49:45;12.27;;;1.75;;
73571;SDS011;61854;48.510;-2.770;2022-12-29T12:55:23;13.25;;;1.60;;
73571;SDS011;61854;48.510;-2.770;2022-12-29T13:26:11;15.15;;;2.33;;
73571;SDS011;61854;48.510;-2.770;2022-12-29T13:36:51;11.50;;;1.58;;
73571;SDS011;61854;48.510;-2.770;2022-12-29T13:39:28;11.30;;;1.63;;
73571;SDS011;61854;48.510;-2.770;2022-12-29T13:41:58;10.70;;;1.38;;
73571;SDS011;61854;48.510;-2.770;2022-12-29T13:47:13;7.82;;;1.20;;
73571;SDS011;61854;48.510;-2.770;2022-12-29T13:49:51;6.05;;;1.30;;
73571;SDS011;61854;48.510;-2.770;2022-12-29T13:55:08;4.72;;;1.00;;
73571;SDS011;61854;48.510;-2.770;2022-12-29T14:07:43;3.90;;;0.90;;
73571;SDS011;61854;48.510;-2.770;2022-12-29T14:10:45;6.15;;;0.93;;
73571;SDS011;61854;48.510;-2.770;2022-12-29T14:13:15;6.30;;;1.25;;
73571;SDS011;61854;48.510;-2.770;2022-12-29T14:15:50;7.03;;;1.58;;
73571;SDS011;61854;48.510;-2.770;2022-12-29T14:23:17;8.10;;;1.60;;
73571;SDS011;61854;48.510;-2.770;2022-12-29T14:30:58;6.85;;;1.02;;
73571;SDS011;61854;48.510;-2.770;2022-12-29T14:33:26;8.77;;;1.55;;
73571;SDS011;61854;48.510;-2.770;2022-12-29T14:35:55;10.45;;;1.48;;
73571;SDS011;61854;48.510;-2.770;2022-12-29T14:38:22;10.95;;;1.65;;
73571;SDS011;61854;48.510;-2.770;2022-12-29T14:40:50;11.00;;;2.00;;
73571;SDS011;61854;48.510;-2.770;2022-12-29T14:43:18;10.27;;;1.90;;
73571;SDS011;61854;48.510;-2.770;2022-12-29T14:46:00;11.63;;;1.65;;
73571;SDS011;61854;48.510;-2.770;2022-12-29T14:48:32;7.53;;;1.20;;
73571;SDS011;61854;48.510;-2.770;2022-12-29T14:50:59;4.68;;;1.02;;
73571;SDS011;61854;48.510;-2.770;2022-12-29T14:53:44;8.75;;;1.13;;
73571;SDS011;61854;48.510;-2.770;2022-12-29T14:56:13;10.25;;;1.00;;
73571;SDS011;61854;48.510;-2.770;2022-12-29T14:58:44;9.38;;;1.70;;
73571;SDS011;61854;48.510;-2.770;2022-12-29T15:01:19;10.40;;;1.40;;
73571;SDS011;61854;48.510;-2.770;2022-12-29T15:04:13;6.57;;;1.30;;
73571;SDS011;61854;48.510;-2.770;2022-12-29T15:06:48;8.00;;;1.00;;
73571;SDS011;61854;48.510;-2.770;2022-12-29T15:12:05;9.18;;;1.50;;
73571;SDS011;61854;48.510;-2.770;2022-12-29T15:15:13;8.73;;;1.27;;
73571;SDS011;61854;48.510;-2.770;2022-12-29T15:17:42;7.10;;;1.50;;
73571;SDS011;61854;48.510;-2.770;2022-12-29T15:20:41;7.80;;;1.75;;
73571;SDS011;61854;48.510;-2.770;2022-12-29T15:23:03;9.52;;;1.63;;
73571;SDS011;61854;48.510;-2.770;2022-12-29T15:25:46;8.02;;;1.55;;
73571;SDS011;61854;48.510;-2.770;2022-12-29T15:28:16;6.13;;;1.52;;
73571;SDS011;61854;48.510;-2.770;2022-12-29T15:30:54;10.57;;;1.75;;
73571;SDS011;61854;48.510;-2.770;2022-12-29T15:33:26;10.82;;;1.70;;
73571;SDS011;61854;48.510;-2.770;2022-12-29T15:35:53;11.57;;;1.90;;
73571;SDS011;61854;48.510;-2.770;2022-12-29T15:38:29;9.23;;;1.58;;
73571;SDS011;61854;48.510;-2.770;2022-12-29T15:46:43;8.87;;;1.73;;
73571;SDS011;61854;48.510;-2.770;2022-12-29T15:49:11;7.80;;;1.60;;
73571;SDS011;61854;48.510;-2.770;2022-12-29T15:51:39;8.77;;;1.80;;
73571;SDS011;61854;48.510;-2.770;2022-12-29T15:54:06;6.15;;;1.30;;
73571;SDS011;61854;48.510;-2.770;2022-12-29T15:56:45;9.35;;;2.25;;
73571;SDS011;61854;48.510;-2.770;2022-12-29T15:59:24;9.40;;;1.58;;
73571;SDS011;61854;48.510;-2.770;2022-12-29T16:01:59;6.75;;;1.60;;
73571;SDS011;61854;48.510;-2.770;2022-12-29T16:04:27;8.27;;;1.40;;
73571;SDS011;61854;48.510;-2.770;2022-12-29T16:07:01;7.85;;;1.73;;
73571;SDS011;61854;48.510;-2.770;2022-12-29T16:12:21;7.07;;;1.65;;
73571;SDS011;61854;48.510;-2.770;2022-12-29T16:14:51;9.15;;;1.75;;
73571;SDS011;61854;48.510;-2.770;2022-12-29T16:17:20;9.50;;;2.22;;
73571;SDS011;61854;48.510;-2.770;2022-12-29T16:19:59;9.60;;;1.70;;
73571;SDS011;61854;48.510;-2.770;2022-12-29T16:22:38;8.73;;;2.03;;
73571;SDS011;61854;48.510;-2.770;2022-12-29T16:25:09;6.65;;;1.60;;
73571;SDS011;61854;48.510;-2.770;2022-12-29T16:27:54;10.88;;;2.03;;
73571;SDS011;61854;48.510;-2.770;2022-12-29T16:30:22;8.20;;;1.85;;
73571;SDS011;61854;48.510;-2.770;2022-12-29T16:32:50;8.25;;;1.65;;
73571;SDS011;61854;48.510;-2.770;2022-12-29T16:40:38;10.77;;;2.17;;
73571;SDS011;61854;48.510;-2.770;2022-12-29T16:48:28;12.13;;;1.95;;
73571;SDS011;61854;48.510;-2.770;2022-12-29T16:51:06;7.97;;;2.33;;
73571;SDS011;61854;48.510;-2.770;2022-12-29T16:53:39;6.93;;;2.13;;
73571;SDS011;61854;48.510;-2.770;2022-12-29T16:56:13;6.43;;;1.77;;
73571;SDS011;61854;48.510;-2.770;2022-12-29T16:58:43;11.60;;;3.10;;
73571;SDS011;61854;48.510;-2.770;2022-12-29T17:01:12;9.88;;;2.25;;
73571;SDS011;61854;48.510;-2.770;2022-12-29T17:03:40;9.85;;;2.20;;
73571;SDS011;61854;48.510;-2.770;2022-12-29T17:06:14;6.90;;;2.20;;
73571;SDS011;61854;48.510;-2.770;2022-12-29T17:08:41;7.53;;;2.42;;
73571;SDS011;61854;48.510;-2.770;2022-12-29T17:11:14;7.82;;;2.30;;
73571;SDS011;61854;48.510;-2.770;2022-12-29T17:14:09;9.77;;;2.85;;
73571;SDS011;61854;48.510;-2.770;2022-12-29T17:16:46;6.72;;;1.83;;
73571;SDS011;61854;48.510;-2.770;2022-12-29T17:19:15;8.13;;;1.70;;
73571;SDS011;61854;48.510;-2.770;2022-12-29T17:21:47;6.57;;;1.55;;
73571;SDS011;61854;48.510;-2.770;2022-12-29T17:24:19;7.20;;;2.10;;
73571;SDS011;61854;48.510;-2.770;2022-12-29T17:26:45;8.85;;;1.73;;
73571;SDS011;61854;48.510;-2.770;2022-12-29T17:29:18;7.75;;;1.58;;
73571;SDS011;61854;48.510;-2.770;2022-12-29T17:31:54;10.18;;;2.35;;
73571;SDS011;61854;48.510;-2.770;2022-12-29T17:34:19;6.65;;;1.67;;
73571;SDS011;61854;48.510;-2.770;2022-12-29T17:36:45;7.80;;;2.47;;
73571;SDS011;61854;48.510;-2.770;2022-12-29T17:39:11;14.55;;;2.50;;